Time;durP1;ratioP1;P1;durP2;ratioP2;P2;SDS_P1;SDS_P2;PMS_P1;PMS_P2;Temp;Humidity;BMP_temperature;BMP_pressure;BME280_temperature;BME280_humidity;BME280_pressure;Samples;Min_cycle;Max_cycle;Signal;HPM_P1;HPM_P2
2022/03/27 00:01:34;;;;;;;11.70;6.45;;;;;;;;;;5019177;28;20026;-62
2022/03/27 00:04:01;;;;;;;11.90;7.07;;;;;;;;;;5013792;28;20128;-62
2022/03/27 00:06:27;;;;;;;9.13;6.78;;;;;;;;;;5020261;28;20030;-62
2022/03/27 00:08:53;;;;;;;11.05;7.00;;;;;;;;;;5013477;28;20034;-63
2022/03/27 00:11:27;;;;;;;10.50;7.40;;;;;;;;;;5018911;28;20087;-62
2022/03/27 00:13:55;;;;;;;10.50;6.20;;;;;;;;;;5017486;28;20026;-62
2022/03/27 00:16:21;;;;;;;11.75;7.28;;;;;;;;;;5017443;28;20025;-62
2022/03/27 00:18:47;;;;;;;8.27;6.75;;;;;;;;;;5020796;28;20052;-63
2022/03/27 00:21:14;;;;;;;11.05;6.78;;;;;;;;;;5016547;28;20033;-62
2022/03/27 00:23:40;;;;;;;10.40;7.53;;;;;;;;;;5016993;28;20160;-63
2022/03/27 00:26:06;;;;;;;11.82;7.10;;;;;;;;;;5015366;28;20092;-63
2022/03/27 00:28:32;;;;;;;11.80;6.70;;;;;;;;;;5019940;28;20030;-62
2022/03/27 00:31:01;;;;;;;10.98;7.22;;;;;;;;;;5020793;28;20457;-62
2022/03/27 00:33:28;;;;;;;11.15;6.97;;;;;;;;;;5013581;28;20029;-62
2022/03/27 00:35:55;;;;;;;9.63;7.25;;;;;;;;;;5019526;28;20120;-62
2022/03/27 00:38:21;;;;;;;14.23;7.13;;;;;;;;;;5018991;28;20033;-63
2022/03/27 00:40:49;;;;;;;14.75;7.30;;;;;;;;;;5021784;28;20626;-62
2022/03/27 00:43:14;;;;;;;11.82;8.25;;;;;;;;;;5017007;28;20025;-62
2022/03/27 00:45:40;;;;;;;14.05;6.75;;;;;;;;;;5014013;28;20029;-62
2022/03/27 00:48:06;;;;;;;16.15;6.97;;;;;;;;;;5020434;28;20100;-62
2022/03/27 00:50:32;;;;;;;7.93;6.47;;;;;;;;;;5015770;28;20050;-62
2022/03/27 00:52:58;;;;;;;10.98;7.00;;;;;;;;;;5018223;28;20077;-63
2022/03/27 00:55:24;;;;;;;12.68;7.50;;;;;;;;;;5014940;28;20087;-62
2022/03/27 00:57:50;;;;;;;9.02;7.05;;;;;;;;;;5015244;28;20036;-62
2022/03/27 01:00:48;;;;;;;8.15;6.32;;;;;;;;;;5018530;28;20487;-62
2022/03/27 01:03:20;;;;;;;11.60;7.22;;;;;;;;;;5011863;28;20033;-62
2022/03/27 01:05:48;;;;;;;7.55;6.30;;;;;;;;;;5014654;28;20057;-62
2022/03/27 01:08:14;;;;;;;12.63;6.75;;;;;;;;;;5017647;28;20041;-62
2022/03/27 01:10:42;;;;;;;7.15;6.45;;;;;;;;;;5020753;28;20423;-62
2022/03/27 01:13:18;;;;;;;9.23;6.53;;;;;;;;;;5017367;28;20058;-62
2022/03/27 01:15:51;;;;;;;10.63;6.70;;;;;;;;;;5014579;28;20038;-62
2022/03/27 01:18:17;;;;;;;9.45;6.45;;;;;;;;;;5011228;28;20049;-62
2022/03/27 01:20:43;;;;;;;12.60;6.55;;;;;;;;;;5017525;28;20378;-62
2022/03/27 01:23:13;;;;;;;9.77;6.80;;;;;;;;;;5025257;28;20029;-62
2022/03/27 01:25:41;;;;;;;11.20;6.75;;;;;;;;;;5023008;28;20025;-62
2022/03/27 01:28:09;;;;;;;14.18;6.95;;;;;;;;;;5013929;28;20029;-62
2022/03/27 01:30:35;;;;;;;9.40;6.80;;;;;;;;;;5012712;28;20030;-62
2022/03/27 01:33:02;;;;;;;9.50;6.53;;;;;;;;;;5014715;28;20084;-62
2022/03/27 01:35:29;;;;;;;11.68;6.35;;;;;;;;;;5013060;28;20095;-62
2022/03/27 01:37:54;;;;;;;10.82;6.40;;;;;;;;;;5022303;28;20498;-62
2022/03/27 01:40:20;;;;;;;15.80;6.45;;;;;;;;;;5015707;28;20029;-62
2022/03/27 01:42:46;;;;;;;14.70;5.90;;;;;;;;;;5020006;28;20087;-61
2022/03/27 01:45:12;;;;;;;8.82;6.30;;;;;;;;;;5015849;28;20033;-62
2022/03/27 01:47:39;;;;;;;10.05;5.95;;;;;;;;;;5015316;28;20109;-62
2022/03/27 01:50:06;;;;;;;12.35;6.50;;;;;;;;;;5022501;28;20025;-62
2022/03/27 01:52:33;;;;;;;12.13;6.05;;;;;;;;;;5019302;28;20064;-62
2022/03/27 01:54:59;;;;;;;14.57;6.00;;;;;;;;;;5017451;28;20045;-62
2022/03/27 01:57:25;;;;;;;12.73;6.00;;;;;;;;;;5015869;28;20115;-60
2022/03/27 01:59:50;;;;;;;13.48;5.18;;;;;;;;;;5018437;28;20037;-62
2022/03/27 02:02:23;;;;;;;12.63;5.30;;;;;;;;;;5015783;28;20037;-62
2022/03/27 02:04:50;;;;;;;7.57;5.40;;;;;;;;;;5019363;28;20040;-62
2022/03/27 02:07:17;;;;;;;9.13;6.22;;;;;;;;;;5016568;28;20423;-62
2022/03/27 02:09:44;;;;;;;10.10;6.00;;;;;;;;;;5011092;28;20434;-62
2022/03/27 02:12:10;;;;;;;13.07;5.82;;;;;;;;;;5011053;28;20084;-62
2022/03/27 02:14:36;;;;;;;13.82;5.70;;;;;;;;;;5019498;28;20030;-62
2022/03/27 02:17:02;;;;;;;7.57;5.85;;;;;;;;;;5017511;28;20080;-63
2022/03/27 02:19:27;;;;;;;10.48;5.95;;;;;;;;;;5021751;28;20628;-62
2022/03/27 02:21:54;;;;;;;8.68;6.00;;;;;;;;;;5014201;28;20025;-63
2022/03/27 02:24:20;;;;;;;10.93;5.47;;;;;;;;;;5018431;28;20029;-62
2022/03/27 02:26:47;;;;;;;9.95;5.38;;;;;;;;;;5014072;28;20053;-62
2022/03/27 02:29:14;;;;;;;7.28;5.22;;;;;;;;;;5014651;28;20030;-62
2022/03/27 02:31:40;;;;;;;7.22;5.80;;;;;;;;;;5016481;28;20478;-63
2022/03/27 02:34:06;;;;;;;10.52;5.65;;;;;;;;;;5016623;28;20088;-62
2022/03/27 02:36:32;;;;;;;7.72;5.18;;;;;;;;;;5011279;28;20030;-62
2022/03/27 02:38:58;;;;;;;9.40;4.95;;;;;;;;;;5017163;28;20046;-62
2022/03/27 02:41:23;;;;;;;9.27;5.30;;;;;;;;;;5018715;28;20074;-62
2022/03/27 02:43:50;;;;;;;12.25;5.88;;;;;;;;;;5015615;28;20079;-62
2022/03/27 02:46:16;;;;;;;9.35;5.30;;;;;;;;;;5013569;28;20538;-62
2022/03/27 02:48:41;;;;;;;9.52;5.38;;;;;;;;;;5019474;28;20037;-62
2022/03/27 02:51:07;;;;;;;8.05;4.97;;;;;;;;;;5011431;28;20109;-62
2022/03/27 02:53:34;;;;;;;8.60;5.57;;;;;;;;;;5016352;28;20117;-62
2022/03/27 02:55:59;;;;;;;9.45;5.47;;;;;;;;;;5019764;28;20033;-62
2022/03/27 02:58:26;;;;;;;7.18;5.13;;;;;;;;;;5021016;28;20041;-62
2022/03/27 03:00:52;;;;;;;10.85;5.25;;;;;;;;;;5014456;28;20029;-62
2022/03/27 03:03:18;;;;;;;8.85;5.05;;;;;;;;;;5015275;28;20025;-62
2022/03/27 03:05:44;;;;;;;7.68;5.18;;;;;;;;;;5017062;28;20033;-62
2022/03/27 03:08:11;;;;;;;14.45;5.35;;;;;;;;;;5023463;28;20037;-62
2022/03/27 03:10:38;;;;;;;10.20;5.28;;;;;;;;;;5013629;28;20152;-62
2022/03/27 03:13:08;;;;;;;10.63;5.47;;;;;;;;;;5017658;28;20116;-62
2022/03/27 03:15:38;;;;;;;7.68;5.00;;;;;;;;;;5017021;28;20022;-62
2022/03/27 03:18:05;;;;;;;14.60;5.90;;;;;;;;;;5015510;28;20383;-62
2022/03/27 03:20:32;;;;;;;13.07;5.38;;;;;;;;;;5016570;28;20558;-62
2022/03/27 03:22:58;;;;;;;9.75;5.47;;;;;;;;;;5019333;28;20497;-62
2022/03/27 03:25:24;;;;;;;6.22;5.03;;;;;;;;;;5021135;28;20470;-62
2022/03/27 03:27:50;;;;;;;10.82;5.32;;;;;;;;;;5016846;28;20025;-62
2022/03/27 03:30:17;;;;;;;10.40;5.43;;;;;;;;;;5014844;28;20483;-62
2022/03/27 03:32:43;;;;;;;6.65;5.00;;;;;;;;;;5019066;28;20022;-62
2022/03/27 03:35:10;;;;;;;8.02;5.03;;;;;;;;;;5016176;28;20544;-62
2022/03/27 03:37:37;;;;;;;16.98;5.22;;;;;;;;;;5022519;28;20033;-62
2022/03/27 03:40:08;;;;;;;7.90;5.47;;;;;;;;;;5020854;28;20030;-62
2022/03/27 03:42:53;;;;;;;10.85;5.00;;;;;;;;;;5016578;28;20140;-62
2022/03/27 03:45:25;;;;;;;12.85;5.50;;;;;;;;;;5016442;28;20036;-62
2022/03/27 03:48:10;;;;;;;10.82;4.90;;;;;;;;;;5014168;28;20042;-62
2022/03/27 03:50:56;;;;;;;8.57;5.25;;;;;;;;;;5021724;28;20037;-62
2022/03/27 03:53:27;;;;;;;10.60;4.80;;;;;;;;;;5022770;28;20636;-61
2022/03/27 03:56:13;;;;;;;9.93;4.82;;;;;;;;;;5022107;28;20033;-62
2022/03/27 03:58:58;;;;;;;6.95;4.60;;;;;;;;;;5016722;28;20084;-62
2022/03/27 04:01:44;;;;;;;9.05;4.80;;;;;;;;;;5017218;28;20037;-62
2022/03/27 04:04:30;;;;;;;8.65;4.97;;;;;;;;;;5021715;28;20040;-62
2022/03/27 04:07:04;;;;;;;10.93;5.28;;;;;;;;;;5012930;28;20034;-62
2022/03/27 04:09:49;;;;;;;8.45;4.60;;;;;;;;;;5016175;28;20053;-62
2022/03/27 04:12:28;;;;;;;7.25;4.90;;;;;;;;;;5015737;28;20033;-63
2022/03/27 04:14:55;;;;;;;8.98;5.43;;;;;;;;;;5024089;28;20032;-62
2022/03/27 04:17:21;;;;;;;10.43;5.07;;;;;;;;;;5017839;28;20467;-62
2022/03/27 04:19:47;;;;;;;11.50;5.30;;;;;;;;;;5024221;28;20049;-62
2022/03/27 04:22:13;;;;;;;9.68;4.68;;;;;;;;;;5019135;28;20060;-62
2022/03/27 04:24:38;;;;;;;10.18;5.10;;;;;;;;;;5017331;28;20108;-61
2022/03/27 04:27:04;;;;;;;7.03;5.25;;;;;;;;;;5018020;28;20466;-62
2022/03/27 04:29:30;;;;;;;9.05;4.80;;;;;;;;;;5019399;28;20491;-63
2022/03/27 04:31:55;;;;;;;9.93;5.43;;;;;;;;;;5016119;28;20076;-62
2022/03/27 04:34:21;;;;;;;7.35;4.53;;;;;;;;;;5019972;28;20502;-62
2022/03/27 04:36:47;;;;;;;8.70;5.00;;;;;;;;;;5016383;28;20541;-63
2022/03/27 04:39:13;;;;;;;9.93;4.90;;;;;;;;;;5016371;28;20056;-62
2022/03/27 04:41:39;;;;;;;10.32;5.20;;;;;;;;;;5025482;28;20530;-62
2022/03/27 04:44:07;;;;;;;10.35;5.55;;;;;;;;;;5025276;28;20129;-62
2022/03/27 04:46:32;;;;;;;9.88;4.50;;;;;;;;;;5020466;28;20417;-63
2022/03/27 04:48:58;;;;;;;10.68;5.05;;;;;;;;;;5019130;28;20037;-62
2022/03/27 04:51:24;;;;;;;8.10;5.18;;;;;;;;;;5020637;28;20037;-62
2022/03/27 04:53:50;;;;;;;6.18;4.70;;;;;;;;;;5018532;28;20263;-62
2022/03/27 04:56:17;;;;;;;7.60;4.70;;;;;;;;;;5022895;28;20563;-62
2022/03/27 04:58:43;;;;;;;9.38;5.50;;;;;;;;;;5016526;28;20088;-62
2022/03/27 05:01:10;;;;;;;13.07;4.80;;;;;;;;;;5021265;28;20061;-62
2022/03/27 05:03:36;;;;;;;13.55;4.47;;;;;;;;;;5017954;28;20044;-62
2022/03/27 05:06:02;;;;;;;11.55;4.88;;;;;;;;;;5014547;28;20061;-62
2022/03/27 05:08:28;;;;;;;9.07;4.75;;;;;;;;;;5013006;28;20262;-62
2022/03/27 05:10:54;;;;;;;10.07;5.13;;;;;;;;;;5023919;28;20543;-62
2022/03/27 05:13:20;;;;;;;8.68;5.07;;;;;;;;;;5023969;28;20026;-63
2022/03/27 05:15:47;;;;;;;7.38;4.85;;;;;;;;;;5019605;28;20033;-62
2022/03/27 05:18:12;;;;;;;9.60;4.93;;;;;;;;;;5016555;28;20033;-62
2022/03/27 05:20:41;;;;;;;6.28;4.90;;;;;;;;;;5021386;28;20168;-62
2022/03/27 05:23:08;;;;;;;10.90;5.00;;;;;;;;;;5021981;28;20033;-62
2022/03/27 05:25:45;;;;;;;9.88;5.50;;;;;;;;;;5017080;28;20033;-62
2022/03/27 05:28:13;;;;;;;12.35;5.55;;;;;;;;;;5019106;28;20592;-62
2022/03/27 05:30:39;;;;;;;10.88;5.30;;;;;;;;;;5017849;28;20033;-62
2022/03/27 05:33:05;;;;;;;10.75;4.80;;;;;;;;;;5021379;28;20061;-62
2022/03/27 05:35:31;;;;;;;5.72;4.18;;;;;;;;;;5018456;28;20079;-63
2022/03/27 05:37:58;;;;;;;10.13;4.90;;;;;;;;;;5018673;28;20041;-62
2022/03/27 05:40:24;;;;;;;7.03;4.93;;;;;;;;;;5020683;28;20076;-63
2022/03/27 05:42:51;;;;;;;11.93;5.28;;;;;;;;;;5022992;28;20513;-62
2022/03/27 05:45:18;;;;;;;7.50;5.10;;;;;;;;;;5019291;28;20029;-63
2022/03/27 05:47:44;;;;;;;8.93;5.07;;;;;;;;;;5022160;28;20088;-63
2022/03/27 05:50:11;;;;;;;8.93;4.97;;;;;;;;;;5019417;28;20125;-62
2022/03/27 05:52:37;;;;;;;9.45;5.72;;;;;;;;;;5016681;28;20056;-63
2022/03/27 05:55:05;;;;;;;7.07;5.32;;;;;;;;;;5021153;28;20030;-62
2022/03/27 05:57:31;;;;;;;12.13;5.97;;;;;;;;;;5012829;28;20029;-63
2022/03/27 05:59:57;;;;;;;9.85;5.68;;;;;;;;;;5014610;28;20030;-63
2022/03/27 06:02:22;;;;;;;17.13;6.25;;;;;;;;;;5022975;28;20495;-62
2022/03/27 06:04:48;;;;;;;13.18;5.97;;;;;;;;;;5019318;28;20483;-62
2022/03/27 06:07:13;;;;;;;12.45;6.80;;;;;;;;;;5019314;28;20401;-62
2022/03/27 06:09:39;;;;;;;8.38;6.45;;;;;;;;;;5016082;28;20029;-62
2022/03/27 06:12:05;;;;;;;11.25;6.60;;;;;;;;;;5014364;28;20029;-62
2022/03/27 06:14:32;;;;;;;23.85;7.30;;;;;;;;;;5015400;28;20030;-62
2022/03/27 06:16:58;;;;;;;9.27;6.68;;;;;;;;;;5019460;28;20060;-62
2022/03/27 06:19:23;;;;;;;10.93;7.40;;;;;;;;;;5014782;28;20021;-63
2022/03/27 06:21:49;;;;;;;12.90;7.85;;;;;;;;;;5015197;28;20386;-62
2022/03/27 06:24:15;;;;;;;14.18;7.40;;;;;;;;;;5017560;28;20029;-62
2022/03/27 06:26:42;;;;;;;12.10;7.60;;;;;;;;;;5016671;28;20026;-62
2022/03/27 06:29:13;;;;;;;10.80;7.80;;;;;;;;;;5018265;28;20040;-63
2022/03/27 06:31:40;;;;;;;13.40;7.55;;;;;;;;;;5018717;28;20033;-63
2022/03/27 06:34:06;;;;;;;11.00;7.53;;;;;;;;;;5015651;28;20084;-61
2022/03/27 06:36:34;;;;;;;12.07;7.43;;;;;;;;;;5013366;28;20045;-62
2022/03/27 06:39:01;;;;;;;9.93;7.78;;;;;;;;;;5023580;28;20055;-62
2022/03/27 06:41:27;;;;;;;14.15;7.93;;;;;;;;;;5021072;28;20057;-62
2022/03/27 06:43:53;;;;;;;10.73;7.53;;;;;;;;;;5014751;28;20036;-62
2022/03/27 06:46:19;;;;;;;11.25;7.50;;;;;;;;;;5015857;28;20026;-63
2022/03/27 06:48:46;;;;;;;13.77;8.13;;;;;;;;;;5014675;28;20033;-62
2022/03/27 06:51:13;;;;;;;8.43;7.30;;;;;;;;;;5019988;28;20037;-62
2022/03/27 06:53:40;;;;;;;11.82;8.27;;;;;;;;;;5021849;28;20067;-62
2022/03/27 06:56:06;;;;;;;13.02;7.95;;;;;;;;;;5014159;28;20042;-61
2022/03/27 06:58:32;;;;;;;10.02;7.95;;;;;;;;;;5016777;28;20577;-62
2022/03/27 07:03:43;;;;;;;12.60;8.15;;;;;;;;;;5024437;28;20136;-62
2022/03/27 07:06:10;;;;;;;13.63;7.65;;;;;;;;;;5016494;28;20041;-62
2022/03/27 07:08:37;;;;;;;11.57;7.43;;;;;;;;;;5015773;28;20499;-62
2022/03/27 07:11:03;;;;;;;10.52;7.22;;;;;;;;;;5021615;28;20026;-62
2022/03/27 07:13:30;;;;;;;11.45;7.47;;;;;;;;;;5015046;28;20033;-62
2022/03/27 07:15:56;;;;;;;9.90;7.80;;;;;;;;;;5013724;28;20061;-62
2022/03/27 07:18:22;;;;;;;13.32;7.25;;;;;;;;;;5016271;28;20462;-63
2022/03/27 07:20:48;;;;;;;11.93;7.70;;;;;;;;;;5011833;28;20040;-61
2022/03/27 07:23:19;;;;;;;11.57;7.38;;;;;;;;;;5012905;28;20108;-63
2022/03/27 07:25:47;;;;;;;14.48;7.65;;;;;;;;;;5020443;28;20030;-62
2022/03/27 07:28:14;;;;;;;11.95;7.20;;;;;;;;;;5015637;28;20033;-62
2022/03/27 07:30:43;;;;;;;11.93;7.50;;;;;;;;;;5013037;28;20030;-62
2022/03/27 07:33:10;;;;;;;12.38;7.30;;;;;;;;;;5018615;28;20030;-62
2022/03/27 07:35:36;;;;;;;9.23;7.32;;;;;;;;;;5014136;28;20072;-62
2022/03/27 07:38:03;;;;;;;15.18;7.40;;;;;;;;;;5017300;28;20029;-62
2022/03/27 07:40:29;;;;;;;9.00;6.97;;;;;;;;;;5013593;28;20044;-63
2022/03/27 07:42:55;;;;;;;10.63;6.72;;;;;;;;;;5014882;28;20025;-62
2022/03/27 07:45:28;;;;;;;9.35;7.07;;;;;;;;;;5012815;28;20037;-62
2022/03/27 07:47:55;;;;;;;10.30;7.35;;;;;;;;;;5016331;28;20638;-62
2022/03/27 07:50:23;;;;;;;10.65;7.65;;;;;;;;;;5013738;28;20030;-63
2022/03/27 07:52:49;;;;;;;11.10;7.20;;;;;;;;;;5016343;28;20111;-62
2022/03/27 07:55:16;;;;;;;9.90;6.88;;;;;;;;;;5015835;28;20475;-62
2022/03/27 07:57:42;;;;;;;11.27;7.68;;;;;;;;;;5015225;28;20061;-62
2022/03/27 08:00:13;;;;;;;10.20;8.02;;;;;;;;;;5015770;28;20038;-62
2022/03/27 08:02:40;;;;;;;14.73;8.25;;;;;;;;;;5018617;28;20040;-62
2022/03/27 08:05:07;;;;;;;13.57;7.35;;;;;;;;;;5016995;28;20033;-62
2022/03/27 08:07:33;;;;;;;11.77;7.50;;;;;;;;;;5012104;28;20116;-62
2022/03/27 08:09:59;;;;;;;11.20;7.40;;;;;;;;;;5018088;28;20220;-63
2022/03/27 08:12:26;;;;;;;12.70;8.40;;;;;;;;;;5020086;28;20052;-62
2022/03/27 08:14:52;;;;;;;17.92;8.80;;;;;;;;;;5024915;28;20034;-62
2022/03/27 08:17:18;;;;;;;18.90;9.70;;;;;;;;;;5017245;28;20038;-62
2022/03/27 08:19:44;;;;;;;14.93;9.55;;;;;;;;;;5017383;28;20483;-63
2022/03/27 08:22:11;;;;;;;13.88;9.48;;;;;;;;;;5017662;28;20458;-62
2022/03/27 08:24:37;;;;;;;14.30;9.10;;;;;;;;;;5021688;28;20161;-62
2022/03/27 08:27:04;;;;;;;13.63;9.07;;;;;;;;;;5019812;28;20101;-62
2022/03/27 08:29:32;;;;;;;10.52;8.48;;;;;;;;;;5022993;28;20022;-63
2022/03/27 08:32:00;;;;;;;9.30;8.00;;;;;;;;;;5018035;28;20229;-62
2022/03/27 08:34:28;;;;;;;12.45;8.80;;;;;;;;;;5015370;28;20474;-63
2022/03/27 08:36:54;;;;;;;13.38;8.15;;;;;;;;;;5016832;28;20444;-62
2022/03/27 08:39:20;;;;;;;13.18;8.02;;;;;;;;;;5012952;28;20537;-62
2022/03/27 08:41:48;;;;;;;12.52;7.95;;;;;;;;;;5014572;28;20042;-62
2022/03/27 08:44:18;;;;;;;25.10;8.00;;;;;;;;;;5021875;28;20121;-62
2022/03/27 08:46:45;;;;;;;13.45;7.97;;;;;;;;;;5018305;28;20109;-62
2022/03/27 08:49:46;;;;;;;14.52;7.70;;;;;;;;;;5019190;28;20030;-62
2022/03/27 08:52:19;;;;;;;13.27;7.70;;;;;;;;;;5014502;28;20171;-62
2022/03/27 08:54:54;;;;;;;12.90;7.63;;;;;;;;;;5013952;28;20060;-62
2022/03/27 08:57:51;;;;;;;11.52;7.50;;;;;;;;;;5012164;28;20091;-63
2022/03/27 09:00:25;;;;;;;11.73;7.35;;;;;;;;;;5013454;28;20037;-62
2022/03/27 09:02:51;;;;;;;11.02;7.32;;;;;;;;;;5017807;28;20140;-62
2022/03/27 09:05:20;;;;;;;11.15;7.47;;;;;;;;;;5015351;28;20025;-63
2022/03/27 09:07:46;;;;;;;11.68;7.60;;;;;;;;;;5022463;28;20498;-62
2022/03/27 09:10:12;;;;;;;12.07;8.18;;;;;;;;;;5013737;28;20041;-62
2022/03/27 09:12:38;;;;;;;14.32;8.50;;;;;;;;;;5020090;28;20063;-62
2022/03/27 09:15:08;;;;;;;9.32;7.53;;;;;;;;;;5020030;28;20030;-62
2022/03/27 09:17:54;;;;;;;13.48;7.82;;;;;;;;;;5024282;28;20530;-62
2022/03/27 09:20:34;;;;;;;12.55;7.85;;;;;;;;;;5016845;28;20037;-63
2022/03/27 09:23:26;;;;;;;17.75;8.82;;;;;;;;;;5018514;28;20082;-63
2022/03/27 09:25:54;;;;;;;12.63;8.80;;;;;;;;;;5013427;28;20437;-63
2022/03/27 09:28:28;;;;;;;14.18;9.13;;;;;;;;;;5016797;28;20471;-63
2022/03/27 09:30:56;;;;;;;16.10;9.40;;;;;;;;;;5013595;28;20105;-63
2022/03/27 09:33:35;;;;;;;15.48;9.90;;;;;;;;;;5016387;28;20029;-63
2022/03/27 09:36:04;;;;;;;13.30;9.70;;;;;;;;;;5014253;28;20398;-62
2022/03/27 09:38:30;;;;;;;16.30;10.15;;;;;;;;;;5017343;28;20041;-63
2022/03/27 09:40:56;;;;;;;16.15;10.23;;;;;;;;;;5015669;28;20029;-63
2022/03/27 09:43:22;;;;;;;16.23;9.93;;;;;;;;;;5014356;28;20030;-63
2022/03/27 09:45:59;;;;;;;15.68;9.90;;;;;;;;;;5023434;28;20033;-62
2022/03/27 09:48:25;;;;;;;13.73;9.40;;;;;;;;;;5012923;28;20104;-63
2022/03/27 09:50:53;;;;;;;17.30;10.55;;;;;;;;;;5015668;28;20037;-63
2022/03/27 09:53:27;;;;;;;16.63;10.48;;;;;;;;;;5017189;28;20050;-63
2022/03/27 09:56:11;;;;;;;14.25;10.40;;;;;;;;;;5016964;28;20054;-63
2022/03/27 09:58:38;;;;;;;14.13;9.23;;;;;;;;;;5012759;28;20034;-63
2022/03/27 10:01:13;;;;;;;13.93;9.60;;;;;;;;;;5015726;28;20128;-63
2022/03/27 10:04:03;;;;;;;14.93;11.18;;;;;;;;;;5011968;28;20029;-63
2022/03/27 10:06:34;;;;;;;16.55;10.77;;;;;;;;;;5013415;28;20056;-63
2022/03/27 10:09:05;;;;;;;13.15;10.85;;;;;;;;;;5012520;28;20026;-63
2022/03/27 10:11:33;;;;;;;14.20;10.13;;;;;;;;;;5016191;28;20570;-63
2022/03/27 10:13:59;;;;;;;16.73;10.55;;;;;;;;;;5012353;28;20046;-63
2022/03/27 10:16:30;;;;;;;17.27;10.93;;;;;;;;;;5019501;28;20033;-63
2022/03/27 10:19:24;;;;;;;14.70;10.07;;;;;;;;;;5014095;28;20040;-63
2022/03/27 10:21:52;;;;;;;14.38;11.07;;;;;;;;;;5013857;28;20049;-63
2022/03/27 10:24:19;;;;;;;18.05;10.48;;;;;;;;;;5015526;28;20027;-63
2022/03/27 10:26:46;;;;;;;18.08;10.55;;;;;;;;;;5016509;28;20034;-63
2022/03/27 10:29:13;;;;;;;15.98;10.85;;;;;;;;;;5018387;28;20034;-63
2022/03/27 10:31:39;;;;;;;10.88;9.60;;;;;;;;;;5018532;28;20110;-63
2022/03/27 10:34:08;;;;;;;18.88;11.05;;;;;;;;;;5015530;28;20116;-63
2022/03/27 10:36:36;;;;;;;15.50;11.00;;;;;;;;;;5014790;28;20032;-63
2022/03/27 10:39:21;;;;;;;17.58;12.95;;;;;;;;;;5016072;28;20052;-62
2022/03/27 10:42:03;;;;;;;33.67;11.52;;;;;;;;;;5023621;28;20032;-63
2022/03/27 10:44:56;;;;;;;22.20;13.00;;;;;;;;;;5021126;28;20148;-63
2022/03/27 10:47:28;;;;;;;17.50;13.15;;;;;;;;;;5014932;28;20125;-63
2022/03/27 10:50:06;;;;;;;;;;;;;;;;;;5017301;28;20029;-63
2022/03/27 10:52:36;;;;;;;15.75;10.32;;;;;;;;;;5016803;28;19960;-63
2022/03/27 10:55:39;;;;;;;14.63;11.18;;;;;;;;;;5013669;28;20491;-63
2022/03/27 10:58:31;;;;;;;12.57;10.32;;;;;;;;;;5011625;28;20048;-63
2022/03/27 11:01:23;;;;;;;21.83;11.75;;;;;;;;;;5014912;28;20048;-63
2022/03/27 11:04:10;;;;;;;15.70;11.32;;;;;;;;;;5015442;28;20037;-63
2022/03/27 11:06:40;;;;;;;12.90;10.35;;;;;;;;;;5017753;28;20041;-62
2022/03/27 11:09:08;;;;;;;18.77;10.20;;;;;;;;;;5012171;28;20456;-63
2022/03/27 11:11:37;;;;;;;14.38;9.50;;;;;;;;;;5010996;28;20107;-63
2022/03/27 11:14:04;;;;;;;13.60;10.25;;;;;;;;;;5013930;28;20034;-63
2022/03/27 11:16:30;;;;;;;15.40;9.80;;;;;;;;;;5018242;28;20030;-63
2022/03/27 11:18:56;;;;;;;16.00;9.40;;;;;;;;;;5017739;28;20244;-63
2022/03/27 11:21:28;;;;;;;13.45;8.70;;;;;;;;;;5016234;28;20120;-63
2022/03/27 11:24:03;;;;;;;14.73;8.38;;;;;;;;;;5016248;28;20113;-63
2022/03/27 11:26:31;;;;;;;13.00;8.85;;;;;;;;;;5019379;28;20510;-63
2022/03/27 11:29:04;;;;;;;13.65;9.73;;;;;;;;;;5019483;28;20486;-63
2022/03/27 11:31:34;;;;;;;20.83;9.50;;;;;;;;;;5012374;28;20029;-63
2022/03/27 11:34:09;;;;;;;17.10;9.65;;;;;;;;;;5014282;28;20020;-62
2022/03/27 11:36:36;;;;;;;15.52;9.18;;;;;;;;;;5021069;28;20075;-63
2022/03/27 11:39:30;;;;;;;14.63;9.05;;;;;;;;;;5015971;28;20042;-62
2022/03/27 11:42:23;;;;;;;15.38;9.00;;;;;;;;;;5017573;28;20057;-63
2022/03/27 11:45:07;;;;;;;12.68;8.43;;;;;;;;;;5013052;28;20034;-62
2022/03/27 11:47:40;;;;;;;18.98;8.55;;;;;;;;;;5017078;28;20057;-63
2022/03/27 11:50:07;;;;;;;22.08;8.60;;;;;;;;;;5017199;28;20073;-63
2022/03/27 11:52:34;;;;;;;13.23;8.55;;;;;;;;;;5018182;28;20041;-63
2022/03/27 11:55:03;;;;;;;17.67;8.63;;;;;;;;;;5021092;28;20025;-63
2022/03/27 11:57:55;;;;;;;16.20;8.85;;;;;;;;;;5018295;28;20029;-62
2022/03/27 12:00:34;;;;;;;14.80;9.35;;;;;;;;;;5016603;28;20053;-63
2022/03/27 12:03:01;;;;;;;18.05;9.30;;;;;;;;;;5022455;28;20030;-63
2022/03/27 12:05:37;;;;;;;15.77;9.00;;;;;;;;;;5020058;28;20032;-62
2022/03/27 12:08:05;;;;;;;19.10;8.90;;;;;;;;;;5017413;28;20390;-62
2022/03/27 12:10:39;;;;;;;17.25;9.07;;;;;;;;;;5020249;28;20026;-63
2022/03/27 12:13:08;;;;;;;18.95;8.50;;;;;;;;;;5021483;28;20498;-62
2022/03/27 12:15:41;;;;;;;20.75;8.95;;;;;;;;;;5022315;28;20033;-62
2022/03/27 12:18:07;;;;;;;12.70;9.10;;;;;;;;;;5015650;28;20609;-62
2022/03/27 12:20:48;;;;;;;13.98;9.15;;;;;;;;;;5019178;28;20128;-62
2022/03/27 12:23:26;;;;;;;20.10;9.13;;;;;;;;;;5013474;28;20034;-63
2022/03/27 12:32:07;;;;;;;14.20;8.82;;;;;;;;;;5017095;28;20037;-62
2022/03/27 12:34:38;;;;;;;15.65;9.07;;;;;;;;;;5016599;28;20239;-63
2022/03/27 12:37:14;;;;;;;21.75;8.90;;;;;;;;;;5019199;28;20037;-63
2022/03/27 12:39:50;;;;;;;18.30;8.45;;;;;;;;;;5017584;28;20037;-62
2022/03/27 12:42:39;;;;;;;11.73;6.95;;;;;;;;;;5017236;28;20144;-62
2022/03/27 12:45:23;;;;;;;9.93;7.78;;;;;;;;;;5013042;28;20467;-62
2022/03/27 12:47:58;;;;;;;11.90;7.63;;;;;;;;;;5024755;28;20029;-62
2022/03/27 12:50:30;;;;;;;11.60;7.05;;;;;;;;;;5024347;28;20055;-63
2022/03/27 12:53:07;;;;;;;13.13;7.45;;;;;;;;;;5013439;28;20034;-62
2022/03/27 12:55:53;;;;;;;16.00;6.75;;;;;;;;;;5018458;28;20037;-62
2022/03/27 12:58:38;;;;;;;15.20;6.60;;;;;;;;;;5021831;28;20386;-62
2022/03/27 13:01:21;;;;;;;13.68;7.15;;;;;;;;;;5018668;28;20044;-62
2022/03/27 13:04:07;;;;;;;11.00;7.25;;;;;;;;;;5016290;28;20029;-62
2022/03/27 13:06:58;;;;;;;11.35;6.97;;;;;;;;;;5021027;28;20057;-62
2022/03/27 13:09:25;;;;;;;11.65;7.32;;;;;;;;;;5017377;28;20470;-62
2022/03/27 13:11:51;;;;;;;16.23;7.57;;;;;;;;;;5022408;28;20026;-62
2022/03/27 13:14:17;;;;;;;16.13;6.70;;;;;;;;;;5020590;28;20061;-62
2022/03/27 13:16:45;;;;;;;12.23;6.70;;;;;;;;;;5018221;28;20028;-62
2022/03/27 13:19:20;;;;;;;11.63;7.45;;;;;;;;;;5016239;28;20041;-62
2022/03/27 13:21:54;;;;;;;7.13;6.32;;;;;;;;;;5020186;28;20042;-62
2022/03/27 13:24:25;;;;;;;15.73;7.18;;;;;;;;;;5015526;28;20029;-62
2022/03/27 13:26:59;;;;;;;17.03;7.87;;;;;;;;;;5013927;28;20037;-62
2022/03/27 13:29:25;;;;;;;11.90;6.75;;;;;;;;;;5017922;28;20026;-62
2022/03/27 13:31:52;;;;;;;14.70;7.40;;;;;;;;;;5015978;28;20025;-62
2022/03/27 13:34:18;;;;;;;12.85;7.15;;;;;;;;;;5012984;28;20029;-62
2022/03/27 13:36:47;;;;;;;15.25;8.00;;;;;;;;;;5017273;28;20025;-61
2022/03/27 13:39:13;;;;;;;14.38;8.05;;;;;;;;;;5012207;28;20841;-62
2022/03/27 13:44:26;;;;;;;13.00;7.72;;;;;;;;;;5018503;28;20033;-62
2022/03/27 13:46:52;;;;;;;12.02;7.32;;;;;;;;;;5014608;28;20394;-62
2022/03/27 13:49:19;;;;;;;12.93;7.13;;;;;;;;;;5012034;28;20125;-62
2022/03/27 13:51:45;;;;;;;18.88;7.22;;;;;;;;;;5011140;28;20443;-61
2022/03/27 13:54:12;;;;;;;11.38;6.75;;;;;;;;;;5013856;28;20045;-61
2022/03/27 13:56:40;;;;;;;17.52;7.50;;;;;;;;;;5016565;28;20038;-61
2022/03/27 13:59:08;;;;;;;12.60;7.25;;;;;;;;;;5014655;28;20109;-62
2022/03/27 14:01:39;;;;;;;17.70;6.53;;;;;;;;;;5015483;28;20045;-61
2022/03/27 14:04:13;;;;;;;16.75;6.32;;;;;;;;;;5018727;28;20033;-61
2022/03/27 14:06:40;;;;;;;11.38;6.10;;;;;;;;;;5013090;28;20030;-61
2022/03/27 14:09:06;;;;;;;11.40;4.75;;;;;;;;;;5018326;28;20040;-60
2022/03/27 14:11:32;;;;;;;13.85;5.40;;;;;;;;;;5024367;28;20533;-61
2022/03/27 14:13:58;;;;;;;13.30;5.40;;;;;;;;;;5017240;28;20488;-61
2022/03/27 14:16:24;;;;;;;13.13;5.25;;;;;;;;;;5016747;28;20116;-62
2022/03/27 14:18:50;;;;;;;8.23;5.03;;;;;;;;;;5022025;28;20104;-61
2022/03/27 14:21:17;;;;;;;12.75;5.20;;;;;;;;;;5019767;28;20026;-60
2022/03/27 14:23:44;;;;;;;9.48;4.80;;;;;;;;;;5026040;28;20021;-61
2022/03/27 14:26:10;;;;;;;7.10;5.05;;;;;;;;;;5021529;28;20021;-62
2022/03/27 14:28:36;;;;;;;9.13;4.82;;;;;;;;;;5019303;28;20026;-60
2022/03/27 14:31:02;;;;;;;9.25;5.35;;;;;;;;;;5016417;28;20043;-61
2022/03/27 14:33:28;;;;;;;7.85;4.88;;;;;;;;;;5015046;28;20030;-61
2022/03/27 14:35:57;;;;;;;8.30;4.88;;;;;;;;;;5019402;28;20037;-61
2022/03/27 14:38:23;;;;;;;12.88;5.50;;;;;;;;;;5017500;28;20026;-61
2022/03/27 14:40:49;;;;;;;10.48;5.60;;;;;;;;;;5010633;28;20029;-62
2022/03/27 14:43:15;;;;;;;11.85;5.07;;;;;;;;;;5016786;28;20056;-62
2022/03/27 14:45:41;;;;;;;11.57;4.80;;;;;;;;;;5015538;28;20118;-61
2022/03/27 14:48:08;;;;;;;18.30;5.22;;;;;;;;;;5016422;28;20148;-60
2022/03/27 14:50:34;;;;;;;7.57;5.25;;;;;;;;;;5019271;28;20054;-61
2022/03/27 14:53:00;;;;;;;6.97;4.82;;;;;;;;;;5018627;28;20044;-61
2022/03/27 14:58:14;;;;;;;11.20;5.07;;;;;;;;;;5016244;28;20424;-61
2022/03/27 15:00:41;;;;;;;13.77;5.10;;;;;;;;;;5019082;28;20398;-62
2022/03/27 15:03:07;;;;;;;10.68;5.20;;;;;;;;;;5017283;28;20040;-61